Here is the Quick Look data you requested

The Data originates at the National Weather Service, and is made available here by the UAlbany Department of Atmospheric and Environmental Sciences

Surface Observations

KACK 180253Z AUTO 22006KT 10SM CLR 16/15 A3010 RMK AO2 SLP192 T01610150 58002=
KAQW 180252Z AUTO 08003KT 10SM CLR 17/13 A3003 RMK AO2 SLP167 T01670133 58004=
KBAF 180253Z AUTO 17005KT 10SM CLR 22/13 A3003 RMK AO2 SLP166 T02170133 53002=
KBED 180256Z AUTO 22004KT 10SM CLR 20/13 A3003 RMK AO2 SLP179 T02000133 56004=
KBOS 180254Z 19008KT 10SM SCT220 BKN250 21/13 A3004 RMK AO2 SLP171 T02060128
 58006=
KBVY 180253Z AUTO 00000KT 10SM CLR 18/14 A3003 RMK AO2 SLP163 T01780144 58008=
KCEF 180256Z 17005KT 10SM SCT160 BKN250 21/13 A3003 RMK AO2A SLP174 T02110133
 53002=
KCQX 180252Z AUTO 22005KT 10SM CLR 18/16 A3010 RMK AO2 SLP193 T01830156 58004
 TSNO=
KEWB 180253Z AUTO 20003KT 10SM CLR 17/17 A3007 RMK AO2 SLP183 T01670167 56003=
KFIT 180252Z AUTO 00000KT 10SM CLR 18/15 A3004 RMK AO2 SLP171 T01830150 57006=
KFMH 180255Z AUTO 20005KT 10SM CLR 17/15 A3009 RMK AO2=
KHYA 180256Z AUTO 19006KT 10SM CLR 19/17 A3007 RMK AO2 SLP184 T01890167 58004=
KLWM 180254Z AUTO 19003KT 10SM CLR 21/13 A3005 RMK AO2 SLP173 T02060128 58009=
KMQE 180256Z AUTO 18012KT 19/13 A3005 RMK AO1 SLP183 T01940128 58004=
KMVY 180253Z AUTO 19003KT 8SM CLR 16/16 A3009 RMK AO2 SLP189 T01610156 57001=
KORE 180252Z AUTO 00000KT 10SM CLR 18/15 A3004 RMK AO2 SLP170 T01780150 58002=
KORH 180254Z 22008KT 10SM CLR 20/13 A3008 RMK AO2 SLP180 T02000128 56001=
KOWD 180253Z AUTO 18005KT 10SM CLR 20/13 A3005 RMK AO2 SLP174 T02000133 57002=
KPSF 180254Z AUTO 02003KT 10SM CLR 18/13 A3005 RMK AO2 SLP148 T01830128 58004=
KPVC 180256Z AUTO 19008KT 10SM CLR 19/15 A3008 RMK AO2 SLP184 T01890150 58003=
KPYM 180252Z AUTO 18003KT 10SM CLR 18/16 A3008 RMK AO2 SLP183 T01830156 57003=
KTAN 180252Z AUTO 00000KT 10SM CLR 19/15 A3006 RMK AO2 SLP179 T01890150 57003=